sensor_id;sensor_type;location;lat;lon;timestamp;temperature;humidity
33328;DHT22;19692;52.998;9.116;2023-08-20T00:01:35;18.70;99.90
33328;DHT22;19692;52.998;9.116;2023-08-20T00:04:01;18.60;99.90
33328;DHT22;19692;52.998;9.116;2023-08-20T00:06:27;18.60;99.90
33328;DHT22;19692;52.998;9.116;2023-08-20T00:08:54;18.60;99.90
33328;DHT22;19692;52.998;9.116;2023-08-20T00:11:19;18.60;99.90
33328;DHT22;19692;52.998;9.116;2023-08-20T00:13:45;18.50;99.90
33328;DHT22;19692;52.998;9.116;2023-08-20T00:16:11;18.50;99.90
33328;DHT22;19692;52.998;9.116;2023-08-20T00:18:38;18.40;99.90
33328;DHT22;19692;52.998;9.116;2023-08-20T00:21:04;18.40;99.90
33328;DHT22;19692;52.998;9.116;2023-08-20T00:23:31;18.40;99.90
33328;DHT22;19692;52.998;9.116;2023-08-20T00:25:57;18.30;99.90
33328;DHT22;19692;52.998;9.116;2023-08-20T00:28:23;18.30;99.90
33328;DHT22;19692;52.998;9.116;2023-08-20T00:30:48;18.20;99.90
33328;DHT22;19692;52.998;9.116;2023-08-20T00:33:15;18.20;99.90
33328;DHT22;19692;52.998;9.116;2023-08-20T00:35:40;18.10;99.90
33328;DHT22;19692;52.998;9.116;2023-08-20T00:38:06;18.10;99.90
33328;DHT22;19692;52.998;9.116;2023-08-20T00:40:32;18.10;99.90
33328;DHT22;19692;52.998;9.116;2023-08-20T00:42:58;18.10;99.90
33328;DHT22;19692;52.998;9.116;2023-08-20T00:45:24;18.10;99.90
33328;DHT22;19692;52.998;9.116;2023-08-20T00:47:51;18.10;99.90
33328;DHT22;19692;52.998;9.116;2023-08-20T00:50:18;18.00;99.90
33328;DHT22;19692;52.998;9.116;2023-08-20T00:52:45;18.00;99.90
33328;DHT22;19692;52.998;9.116;2023-08-20T00:55:12;18.00;99.90
33328;DHT22;19692;52.998;9.116;2023-08-20T00:57:40;18.00;99.90
33328;DHT22;19692;52.998;9.116;2023-08-20T01:00:07;17.90;99.90
33328;DHT22;19692;52.998;9.116;2023-08-20T01:02:37;17.90;99.90
33328;DHT22;19692;52.998;9.116;2023-08-20T01:05:05;17.90;99.90
33328;DHT22;19692;52.998;9.116;2023-08-20T01:07:41;17.90;99.90
33328;DHT22;19692;52.998;9.116;2023-08-20T01:12:57;17.70;99.90
33328;DHT22;19692;52.998;9.116;2023-08-20T01:15:24;17.60;99.90
33328;DHT22;19692;52.998;9.116;2023-08-20T01:17:50;17.60;99.90
33328;DHT22;19692;52.998;9.116;2023-08-20T01:20:16;17.50;99.90
33328;DHT22;19692;52.998;9.116;2023-08-20T01:22:56;17.40;99.90
33328;DHT22;19692;52.998;9.116;2023-08-20T01:28:32;17.20;99.90
33328;DHT22;19692;52.998;9.116;2023-08-20T01:31:00;17.10;99.90
33328;DHT22;19692;52.998;9.116;2023-08-20T01:33:29;17.00;99.90
33328;DHT22;19692;52.998;9.116;2023-08-20T01:35:55;16.90;99.90
33328;DHT22;19692;52.998;9.116;2023-08-20T01:38:21;16.90;99.90
33328;DHT22;19692;52.998;9.116;2023-08-20T01:40:48;16.80;99.90
33328;DHT22;19692;52.998;9.116;2023-08-20T01:43:14;16.60;99.90
33328;DHT22;19692;52.998;9.116;2023-08-20T01:45:40;16.60;99.90
33328;DHT22;19692;52.998;9.116;2023-08-20T01:48:06;16.40;99.90
33328;DHT22;19692;52.998;9.116;2023-08-20T01:50:34;16.30;99.90
33328;DHT22;19692;52.998;9.116;2023-08-20T01:53:00;16.30;99.90
33328;DHT22;19692;52.998;9.116;2023-08-20T01:55:28;16.20;99.90
33328;DHT22;19692;52.998;9.116;2023-08-20T01:57:53;16.10;99.90
33328;DHT22;19692;52.998;9.116;2023-08-20T02:00:19;16.00;99.90
33328;DHT22;19692;52.998;9.116;2023-08-20T02:02:45;16.00;99.90
33328;DHT22;19692;52.998;9.116;2023-08-20T02:05:11;16.10;99.90
33328;DHT22;19692;52.998;9.116;2023-08-20T02:07:36;16.00;99.90
33328;DHT22;19692;52.998;9.116;2023-08-20T02:10:03;16.10;99.90
33328;DHT22;19692;52.998;9.116;2023-08-20T02:12:29;16.10;99.90
33328;DHT22;19692;52.998;9.116;2023-08-20T02:14:54;16.20;99.90
33328;DHT22;19692;52.998;9.116;2023-08-20T02:17:21;16.20;99.90
33328;DHT22;19692;52.998;9.116;2023-08-20T02:19:46;16.20;99.90
33328;DHT22;19692;52.998;9.116;2023-08-20T02:22:12;16.20;99.90
33328;DHT22;19692;52.998;9.116;2023-08-20T02:24:38;16.00;99.90
33328;DHT22;19692;52.998;9.116;2023-08-20T02:27:04;16.00;99.90
33328;DHT22;19692;52.998;9.116;2023-08-20T02:29:29;15.90;99.90
33328;DHT22;19692;52.998;9.116;2023-08-20T02:31:55;15.80;99.90
33328;DHT22;19692;52.998;9.116;2023-08-20T02:34:21;15.70;99.90
33328;DHT22;19692;52.998;9.116;2023-08-20T02:36:47;15.70;99.90
33328;DHT22;19692;52.998;9.116;2023-08-20T02:39:14;15.60;99.90
33328;DHT22;19692;52.998;9.116;2023-08-20T02:41:39;15.60;99.90
33328;DHT22;19692;52.998;9.116;2023-08-20T02:44:06;15.60;99.90
33328;DHT22;19692;52.998;9.116;2023-08-20T02:46:32;15.60;99.90
33328;DHT22;19692;52.998;9.116;2023-08-20T02:48:58;15.60;99.90
33328;DHT22;19692;52.998;9.116;2023-08-20T02:51:24;15.60;99.90
33328;DHT22;19692;52.998;9.116;2023-08-20T02:53:49;15.70;99.90
33328;DHT22;19692;52.998;9.116;2023-08-20T02:56:15;15.70;99.90
33328;DHT22;19692;52.998;9.116;2023-08-20T02:58:41;15.70;99.90
33328;DHT22;19692;52.998;9.116;2023-08-20T03:01:07;15.70;99.90
33328;DHT22;19692;52.998;9.116;2023-08-20T03:03:43;15.70;99.90
33328;DHT22;19692;52.998;9.116;2023-08-20T03:06:08;15.60;99.90
33328;DHT22;19692;52.998;9.116;2023-08-20T03:08:37;15.50;99.90
33328;DHT22;19692;52.998;9.116;2023-08-20T03:11:03;15.50;99.90
33328;DHT22;19692;52.998;9.116;2023-08-20T03:13:29;15.50;99.90
33328;DHT22;19692;52.998;9.116;2023-08-20T03:15:54;15.50;99.90
33328;DHT22;19692;52.998;9.116;2023-08-20T03:18:20;15.50;99.90
33328;DHT22;19692;52.998;9.116;2023-08-20T03:20:46;15.50;99.90
33328;DHT22;19692;52.998;9.116;2023-08-20T03:23:12;15.60;99.90
33328;DHT22;19692;52.998;9.116;2023-08-20T03:25:38;15.50;99.90
33328;DHT22;19692;52.998;9.116;2023-08-20T03:28:04;15.50;99.90
33328;DHT22;19692;52.998;9.116;2023-08-20T03:30:30;15.50;99.90
33328;DHT22;19692;52.998;9.116;2023-08-20T03:32:57;15.50;99.90
33328;DHT22;19692;52.998;9.116;2023-08-20T03:35:22;15.50;99.90
33328;DHT22;19692;52.998;9.116;2023-08-20T03:37:48;15.50;99.90
33328;DHT22;19692;52.998;9.116;2023-08-20T03:40:14;15.50;99.90
33328;DHT22;19692;52.998;9.116;2023-08-20T03:42:40;15.60;99.90
33328;DHT22;19692;52.998;9.116;2023-08-20T03:45:06;15.60;99.90
33328;DHT22;19692;52.998;9.116;2023-08-20T03:47:32;15.50;99.90
33328;DHT22;19692;52.998;9.116;2023-08-20T03:49:58;15.40;99.90
33328;DHT22;19692;52.998;9.116;2023-08-20T03:52:24;15.30;99.90
33328;DHT22;19692;52.998;9.116;2023-08-20T03:54:50;15.30;99.90
33328;DHT22;19692;52.998;9.116;2023-08-20T03:57:16;15.20;99.90
33328;DHT22;19692;52.998;9.116;2023-08-20T03:59:42;15.30;99.90
33328;DHT22;19692;52.998;9.116;2023-08-20T04:02:07;15.20;99.90
33328;DHT22;19692;52.998;9.116;2023-08-20T04:04:33;15.30;99.90
33328;DHT22;19692;52.998;9.116;2023-08-20T04:06:59;15.20;99.90
33328;DHT22;19692;52.998;9.116;2023-08-20T04:09:25;15.10;99.90
33328;DHT22;19692;52.998;9.116;2023-08-20T04:11:50;15.10;99.90
33328;DHT22;19692;52.998;9.116;2023-08-20T04:14:16;15.10;99.90
33328;DHT22;19692;52.998;9.116;2023-08-20T04:16:42;15.10;99.90
33328;DHT22;19692;52.998;9.116;2023-08-20T04:19:07;15.20;99.90
33328;DHT22;19692;52.998;9.116;2023-08-20T04:21:33;15.20;99.90
33328;DHT22;19692;52.998;9.116;2023-08-20T04:23:59;15.20;99.90
33328;DHT22;19692;52.998;9.116;2023-08-20T04:26:25;15.20;99.90
33328;DHT22;19692;52.998;9.116;2023-08-20T04:28:50;15.10;99.90
33328;DHT22;19692;52.998;9.116;2023-08-20T04:31:16;15.10;99.90
33328;DHT22;19692;52.998;9.116;2023-08-20T04:33:42;15.10;99.90
33328;DHT22;19692;52.998;9.116;2023-08-20T04:36:08;15.00;99.90
33328;DHT22;19692;52.998;9.116;2023-08-20T04:38:33;15.10;99.90
33328;DHT22;19692;52.998;9.116;2023-08-20T04:41:02;15.00;99.90
33328;DHT22;19692;52.998;9.116;2023-08-20T04:43:27;15.20;99.90
33328;DHT22;19692;52.998;9.116;2023-08-20T04:45:53;15.30;99.90
33328;DHT22;19692;52.998;9.116;2023-08-20T04:48:19;15.30;99.90
33328;DHT22;19692;52.998;9.116;2023-08-20T04:50:45;15.30;99.90
33328;DHT22;19692;52.998;9.116;2023-08-20T04:53:10;15.40;99.90
33328;DHT22;19692;52.998;9.116;2023-08-20T04:55:36;15.40;99.90
33328;DHT22;19692;52.998;9.116;2023-08-20T04:58:02;15.40;99.90
33328;DHT22;19692;52.998;9.116;2023-08-20T05:00:28;15.50;99.90
33328;DHT22;19692;52.998;9.116;2023-08-20T05:02:54;15.60;99.90
33328;DHT22;19692;52.998;9.116;2023-08-20T05:05:21;15.70;99.90
33328;DHT22;19692;52.998;9.116;2023-08-20T05:07:47;15.80;99.90
33328;DHT22;19692;52.998;9.116;2023-08-20T05:10:13;16.00;99.90
33328;DHT22;19692;52.998;9.116;2023-08-20T05:12:38;16.10;99.90
33328;DHT22;19692;52.998;9.116;2023-08-20T05:15:05;16.20;99.90
33328;DHT22;19692;52.998;9.116;2023-08-20T05:17:31;16.30;99.90
33328;DHT22;19692;52.998;9.116;2023-08-20T05:19:56;16.40;99.90
33328;DHT22;19692;52.998;9.116;2023-08-20T05:22:22;16.40;99.90
33328;DHT22;19692;52.998;9.116;2023-08-20T05:24:48;16.40;99.90
33328;DHT22;19692;52.998;9.116;2023-08-20T05:27:15;16.40;99.90
33328;DHT22;19692;52.998;9.116;2023-08-20T05:29:43;16.50;99.90
33328;DHT22;19692;52.998;9.116;2023-08-20T05:32:09;16.50;99.90
33328;DHT22;19692;52.998;9.116;2023-08-20T05:34:35;16.70;99.90
33328;DHT22;19692;52.998;9.116;2023-08-20T05:37:01;16.80;99.90
33328;DHT22;19692;52.998;9.116;2023-08-20T05:39:27;16.80;99.90
33328;DHT22;19692;52.998;9.116;2023-08-20T05:41:56;16.90;99.90
33328;DHT22;19692;52.998;9.116;2023-08-20T05:44:22;16.90;99.90
33328;DHT22;19692;52.998;9.116;2023-08-20T05:46:48;17.00;99.90
33328;DHT22;19692;52.998;9.116;2023-08-20T05:49:15;17.10;99.90
33328;DHT22;19692;52.998;9.116;2023-08-20T05:51:43;17.20;99.90
33328;DHT22;19692;52.998;9.116;2023-08-20T05:54:09;17.40;99.90
33328;DHT22;19692;52.998;9.116;2023-08-20T05:56:36;17.50;99.90
33328;DHT22;19692;52.998;9.116;2023-08-20T05:59:02;17.60;99.90
33328;DHT22;19692;52.998;9.116;2023-08-20T06:01:28;17.70;99.90
33328;DHT22;19692;52.998;9.116;2023-08-20T06:03:54;17.80;99.90
33328;DHT22;19692;52.998;9.116;2023-08-20T06:06:25;17.90;99.90
33328;DHT22;19692;52.998;9.116;2023-08-20T06:08:51;17.90;99.90
33328;DHT22;19692;52.998;9.116;2023-08-20T06:11:18;18.10;99.90
33328;DHT22;19692;52.998;9.116;2023-08-20T06:13:45;18.20;99.90
33328;DHT22;19692;52.998;9.116;2023-08-20T06:16:11;18.30;99.90
33328;DHT22;19692;52.998;9.116;2023-08-20T06:18:36;18.40;99.90
33328;DHT22;19692;52.998;9.116;2023-08-20T06:21:03;18.50;99.90
33328;DHT22;19692;52.998;9.116;2023-08-20T06:23:29;18.50;99.90
33328;DHT22;19692;52.998;9.116;2023-08-20T06:25:55;18.50;99.90
33328;DHT22;19692;52.998;9.116;2023-08-20T06:28:21;18.60;99.90
33328;DHT22;19692;52.998;9.116;2023-08-20T06:30:47;18.80;99.90
33328;DHT22;19692;52.998;9.116;2023-08-20T06:33:13;18.90;99.90
33328;DHT22;19692;52.998;9.116;2023-08-20T06:35:39;19.00;99.90
33328;DHT22;19692;52.998;9.116;2023-08-20T06:38:07;19.10;99.90
33328;DHT22;19692;52.998;9.116;2023-08-20T06:40:33;19.30;99.90
33328;DHT22;19692;52.998;9.116;2023-08-20T06:42:59;19.30;99.90
33328;DHT22;19692;52.998;9.116;2023-08-20T06:45:25;19.40;99.90
33328;DHT22;19692;52.998;9.116;2023-08-20T06:48:16;19.60;99.90
33328;DHT22;19692;52.998;9.116;2023-08-20T06:50:45;19.70;99.90
33328;DHT22;19692;52.998;9.116;2023-08-20T06:53:11;19.60;99.90
33328;DHT22;19692;52.998;9.116;2023-08-20T06:55:36;19.60;99.90
33328;DHT22;19692;52.998;9.116;2023-08-20T06:58:14;19.70;99.90
33328;DHT22;19692;52.998;9.116;2023-08-20T07:00:40;19.90;99.90
33328;DHT22;19692;52.998;9.116;2023-08-20T07:03:06;20.10;99.90
33328;DHT22;19692;52.998;9.116;2023-08-20T07:05:53;20.20;99.90
33328;DHT22;19692;52.998;9.116;2023-08-20T07:08:19;20.30;99.90
33328;DHT22;19692;52.998;9.116;2023-08-20T07:10:47;20.60;99.90
33328;DHT22;19692;52.998;9.116;2023-08-20T07:13:13;20.70;99.90
33328;DHT22;19692;52.998;9.116;2023-08-20T07:15:42;21.00;99.90
33328;DHT22;19692;52.998;9.116;2023-08-20T07:18:08;21.10;99.90
33328;DHT22;19692;52.998;9.116;2023-08-20T07:20:37;21.30;99.90
33328;DHT22;19692;52.998;9.116;2023-08-20T07:23:07;21.40;99.90
33328;DHT22;19692;52.998;9.116;2023-08-20T07:25:32;21.50;99.90
33328;DHT22;19692;52.998;9.116;2023-08-20T07:28:08;21.70;99.90
33328;DHT22;19692;52.998;9.116;2023-08-20T07:30:43;21.80;99.90
33328;DHT22;19692;52.998;9.116;2023-08-20T07:33:12;22.00;99.90
33328;DHT22;19692;52.998;9.116;2023-08-20T07:35:38;22.00;99.90
33328;DHT22;19692;52.998;9.116;2023-08-20T07:38:04;22.00;99.90
33328;DHT22;19692;52.998;9.116;2023-08-20T07:40:30;22.10;99.90
33328;DHT22;19692;52.998;9.116;2023-08-20T07:42:56;22.10;99.90
33328;DHT22;19692;52.998;9.116;2023-08-20T07:45:22;22.30;99.90
33328;DHT22;19692;52.998;9.116;2023-08-20T07:47:47;22.60;99.90
33328;DHT22;19692;52.998;9.116;2023-08-20T07:50:16;22.70;99.90
33328;DHT22;19692;52.998;9.116;2023-08-20T07:52:42;22.80;99.90
33328;DHT22;19692;52.998;9.116;2023-08-20T07:55:08;23.10;99.90
33328;DHT22;19692;52.998;9.116;2023-08-20T07:57:34;23.30;99.90
33328;DHT22;19692;52.998;9.116;2023-08-20T08:00:03;23.40;99.90
33328;DHT22;19692;52.998;9.116;2023-08-20T08:02:30;23.50;99.90
33328;DHT22;19692;52.998;9.116;2023-08-20T08:04:55;23.80;99.90
33328;DHT22;19692;52.998;9.116;2023-08-20T08:07:21;23.70;99.90
33328;DHT22;19692;52.998;9.116;2023-08-20T08:09:47;23.70;99.90
33328;DHT22;19692;52.998;9.116;2023-08-20T08:12:13;24.00;99.90
33328;DHT22;19692;52.998;9.116;2023-08-20T08:14:38;24.20;99.90
33328;DHT22;19692;52.998;9.116;2023-08-20T08:17:04;24.20;99.90
33328;DHT22;19692;52.998;9.116;2023-08-20T08:19:30;24.40;99.90
33328;DHT22;19692;52.998;9.116;2023-08-20T08:21:56;24.60;99.90
33328;DHT22;19692;52.998;9.116;2023-08-20T08:24:22;24.80;99.90
33328;DHT22;19692;52.998;9.116;2023-08-20T08:26:48;24.90;99.90
33328;DHT22;19692;52.998;9.116;2023-08-20T08:29:13;25.00;99.90
33328;DHT22;19692;52.998;9.116;2023-08-20T08:31:39;25.00;99.90
33328;DHT22;19692;52.998;9.116;2023-08-20T08:34:05;25.00;99.90
33328;DHT22;19692;52.998;9.116;2023-08-20T08:36:31;25.10;99.90
33328;DHT22;19692;52.998;9.116;2023-08-20T08:39:00;25.20;99.90
33328;DHT22;19692;52.998;9.116;2023-08-20T08:41:26;25.30;99.90
33328;DHT22;19692;52.998;9.116;2023-08-20T08:44:08;25.40;99.90
33328;DHT22;19692;52.998;9.116;2023-08-20T08:46:38;25.70;99.90
33328;DHT22;19692;52.998;9.116;2023-08-20T08:49:04;25.80;99.90
33328;DHT22;19692;52.998;9.116;2023-08-20T08:51:34;26.00;99.90
33328;DHT22;19692;52.998;9.116;2023-08-20T08:54:13;26.10;99.90
33328;DHT22;19692;52.998;9.116;2023-08-20T08:56:40;26.10;99.90
33328;DHT22;19692;52.998;9.116;2023-08-20T08:59:05;25.80;99.90
33328;DHT22;19692;52.998;9.116;2023-08-20T09:01:31;25.80;99.90
33328;DHT22;19692;52.998;9.116;2023-08-20T09:03:57;26.00;99.90
33328;DHT22;19692;52.998;9.116;2023-08-20T09:06:23;26.20;99.90
33328;DHT22;19692;52.998;9.116;2023-08-20T09:08:49;26.40;99.90
33328;DHT22;19692;52.998;9.116;2023-08-20T09:11:15;26.30;99.90
33328;DHT22;19692;52.998;9.116;2023-08-20T09:13:42;26.20;99.90
33328;DHT22;19692;52.998;9.116;2023-08-20T09:16:10;25.80;99.90
33328;DHT22;19692;52.998;9.116;2023-08-20T09:18:49;25.60;99.90
33328;DHT22;19692;52.998;9.116;2023-08-20T09:21:17;25.90;99.90
33328;DHT22;19692;52.998;9.116;2023-08-20T09:23:46;26.20;99.90
33328;DHT22;19692;52.998;9.116;2023-08-20T09:26:12;26.60;99.90
33328;DHT22;19692;52.998;9.116;2023-08-20T09:28:46;26.90;99.90
33328;DHT22;19692;52.998;9.116;2023-08-20T09:31:13;27.00;99.90
33328;DHT22;19692;52.998;9.116;2023-08-20T09:33:52;27.10;99.90
33328;DHT22;19692;52.998;9.116;2023-08-20T09:36:19;27.10;99.90
33328;DHT22;19692;52.998;9.116;2023-08-20T09:38:52;26.50;99.90
33328;DHT22;19692;52.998;9.116;2023-08-20T09:41:17;26.30;99.90
33328;DHT22;19692;52.998;9.116;2023-08-20T09:43:44;26.20;99.90
33328;DHT22;19692;52.998;9.116;2023-08-20T09:46:11;26.40;99.90
33328;DHT22;19692;52.998;9.116;2023-08-20T09:48:38;26.80;99.90
33328;DHT22;19692;52.998;9.116;2023-08-20T09:51:11;26.50;99.90
33328;DHT22;19692;52.998;9.116;2023-08-20T09:53:43;26.40;99.90
33328;DHT22;19692;52.998;9.116;2023-08-20T09:56:24;26.20;99.90
33328;DHT22;19692;52.998;9.116;2023-08-20T09:58:59;26.40;99.90
33328;DHT22;19692;52.998;9.116;2023-08-20T10:01:27;26.40;99.90
33328;DHT22;19692;52.998;9.116;2023-08-20T10:03:53;26.60;99.90
33328;DHT22;19692;52.998;9.116;2023-08-20T10:06:20;27.00;99.90
33328;DHT22;19692;52.998;9.116;2023-08-20T10:08:46;27.50;99.90
33328;DHT22;19692;52.998;9.116;2023-08-20T10:11:12;27.70;99.90
33328;DHT22;19692;52.998;9.116;2023-08-20T10:13:39;28.10;99.90
33328;DHT22;19692;52.998;9.116;2023-08-20T10:16:05;28.40;99.90
33328;DHT22;19692;52.998;9.116;2023-08-20T10:18:31;28.70;99.90
33328;DHT22;19692;52.998;9.116;2023-08-20T10:21:01;28.80;99.90
33328;DHT22;19692;52.998;9.116;2023-08-20T10:23:26;28.60;99.90
33328;DHT22;19692;52.998;9.116;2023-08-20T10:25:53;28.30;99.90
33328;DHT22;19692;52.998;9.116;2023-08-20T10:28:26;28.00;99.90
33328;DHT22;19692;52.998;9.116;2023-08-20T10:31:09;27.90;99.90
33328;DHT22;19692;52.998;9.116;2023-08-20T10:33:49;27.80;99.90
33328;DHT22;19692;52.998;9.116;2023-08-20T10:36:17;28.10;99.90
33328;DHT22;19692;52.998;9.116;2023-08-20T10:38:47;28.30;99.90
33328;DHT22;19692;52.998;9.116;2023-08-20T10:41:13;28.40;99.90
33328;DHT22;19692;52.998;9.116;2023-08-20T10:43:49;28.80;99.90
33328;DHT22;19692;52.998;9.116;2023-08-20T10:46:17;29.20;99.90
33328;DHT22;19692;52.998;9.116;2023-08-20T10:54:09;29.40;99.90
33328;DHT22;19692;52.998;9.116;2023-08-20T10:56:47;29.40;99.90
33328;DHT22;19692;52.998;9.116;2023-08-20T11:01:51;29.30;99.90
33328;DHT22;19692;52.998;9.116;2023-08-20T11:04:32;29.20;99.90
33328;DHT22;19692;52.998;9.116;2023-08-20T11:06:59;29.20;99.90
33328;DHT22;19692;52.998;9.116;2023-08-20T11:09:29;29.60;99.90
33328;DHT22;19692;52.998;9.116;2023-08-20T11:11:56;29.50;99.90
33328;DHT22;19692;52.998;9.116;2023-08-20T11:14:23;29.70;99.90
33328;DHT22;19692;52.998;9.116;2023-08-20T11:16:50;29.80;99.90
33328;DHT22;19692;52.998;9.116;2023-08-20T11:19:23;30.00;99.90
33328;DHT22;19692;52.998;9.116;2023-08-20T11:21:49;30.00;99.90
33328;DHT22;19692;52.998;9.116;2023-08-20T11:24:16;29.70;99.90
33328;DHT22;19692;52.998;9.116;2023-08-20T11:26:43;29.20;99.90
33328;DHT22;19692;52.998;9.116;2023-08-20T11:29:11;29.10;99.90
33328;DHT22;19692;52.998;9.116;2023-08-20T11:31:39;29.40;99.90
33328;DHT22;19692;52.998;9.116;2023-08-20T11:34:06;29.60;99.90
33328;DHT22;19692;52.998;9.116;2023-08-20T11:36:33;29.60;99.90
33328;DHT22;19692;52.998;9.116;2023-08-20T11:38:59;29.30;99.90
33328;DHT22;19692;52.998;9.116;2023-08-20T11:41:25;28.70;99.90
33328;DHT22;19692;52.998;9.116;2023-08-20T11:43:52;28.60;99.90
33328;DHT22;19692;52.998;9.116;2023-08-20T11:46:19;28.30;99.90
33328;DHT22;19692;52.998;9.116;2023-08-20T11:49:02;28.20;99.90
33328;DHT22;19692;52.998;9.116;2023-08-20T11:51:44;27.80;99.90
33328;DHT22;19692;52.998;9.116;2023-08-20T11:54:14;27.30;99.90
33328;DHT22;19692;52.998;9.116;2023-08-20T11:56:49;27.30;99.90
33328;DHT22;19692;52.998;9.116;2023-08-20T11:59:19;27.40;99.90
33328;DHT22;19692;52.998;9.116;2023-08-20T12:01:56;27.90;99.90
33328;DHT22;19692;52.998;9.116;2023-08-20T12:04:25;28.50;99.90
33328;DHT22;19692;52.998;9.116;2023-08-20T12:07:25;29.20;99.90
33328;DHT22;19692;52.998;9.116;2023-08-20T12:09:55;29.70;99.90
33328;DHT22;19692;52.998;9.116;2023-08-20T12:12:21;30.10;99.90
33328;DHT22;19692;52.998;9.116;2023-08-20T12:14:48;29.80;99.90
33328;DHT22;19692;52.998;9.116;2023-08-20T12:17:17;30.00;99.90
33328;DHT22;19692;52.998;9.116;2023-08-20T12:19:44;30.00;99.90
33328;DHT22;19692;52.998;9.116;2023-08-20T12:22:10;29.90;99.90
33328;DHT22;19692;52.998;9.116;2023-08-20T12:24:36;29.60;99.90
33328;DHT22;19692;52.998;9.116;2023-08-20T12:27:02;29.10;99.90
33328;DHT22;19692;52.998;9.116;2023-08-20T12:29:29;28.70;99.90
33328;DHT22;19692;52.998;9.116;2023-08-20T12:31:55;28.50;99.90
33328;DHT22;19692;52.998;9.116;2023-08-20T12:34:20;28.10;99.90
33328;DHT22;19692;52.998;9.116;2023-08-20T12:36:51;27.70;99.90
33328;DHT22;19692;52.998;9.116;2023-08-20T12:39:16;27.70;99.90
33328;DHT22;19692;52.998;9.116;2023-08-20T12:41:42;27.90;99.90
33328;DHT22;19692;52.998;9.116;2023-08-20T12:44:08;28.30;99.90
33328;DHT22;19692;52.998;9.116;2023-08-20T12:46:34;28.80;99.90
33328;DHT22;19692;52.998;9.116;2023-08-20T12:49:00;29.40;99.90
33328;DHT22;19692;52.998;9.116;2023-08-20T12:51:26;29.70;99.90
33328;DHT22;19692;52.998;9.116;2023-08-20T12:53:52;29.90;99.90
33328;DHT22;19692;52.998;9.116;2023-08-20T12:56:18;30.30;99.90
33328;DHT22;19692;52.998;9.116;2023-08-20T12:58:44;30.60;99.90
33328;DHT22;19692;52.998;9.116;2023-08-20T13:01:10;30.30;99.90
33328;DHT22;19692;52.998;9.116;2023-08-20T13:03:36;30.10;99.90
33328;DHT22;19692;52.998;9.116;2023-08-20T13:06:03;30.30;99.90
33328;DHT22;19692;52.998;9.116;2023-08-20T13:08:29;30.80;99.90
33328;DHT22;19692;52.998;9.116;2023-08-20T13:10:56;30.80;99.90
33328;DHT22;19692;52.998;9.116;2023-08-20T13:13:23;31.00;99.90
33328;DHT22;19692;52.998;9.116;2023-08-20T13:15:51;31.00;99.90
33328;DHT22;19692;52.998;9.116;2023-08-20T13:18:18;30.80;99.90
33328;DHT22;19692;52.998;9.116;2023-08-20T13:20:44;30.90;99.90
33328;DHT22;19692;52.998;9.116;2023-08-20T13:23:10;31.00;99.90
33328;DHT22;19692;52.998;9.116;2023-08-20T13:25:36;31.10;99.90
33328;DHT22;19692;52.998;9.116;2023-08-20T13:28:02;30.80;99.90
33328;DHT22;19692;52.998;9.116;2023-08-20T13:30:28;30.20;99.90
33328;DHT22;19692;52.998;9.116;2023-08-20T13:32:54;29.80;99.90
33328;DHT22;19692;52.998;9.116;2023-08-20T13:35:20;29.00;99.90
33328;DHT22;19692;52.998;9.116;2023-08-20T13:37:46;29.10;99.90
33328;DHT22;19692;52.998;9.116;2023-08-20T13:40:12;29.60;99.90
33328;DHT22;19692;52.998;9.116;2023-08-20T13:42:38;29.60;99.90
33328;DHT22;19692;52.998;9.116;2023-08-20T13:45:04;29.90;99.90
33328;DHT22;19692;52.998;9.116;2023-08-20T13:47:30;30.50;99.90
33328;DHT22;19692;52.998;9.116;2023-08-20T13:49:57;30.80;99.90
33328;DHT22;19692;52.998;9.116;2023-08-20T13:52:22;30.80;99.90
33328;DHT22;19692;52.998;9.116;2023-08-20T13:54:48;31.00;99.90
33328;DHT22;19692;52.998;9.116;2023-08-20T13:57:14;30.70;99.90
33328;DHT22;19692;52.998;9.116;2023-08-20T13:59:39;30.80;99.90
33328;DHT22;19692;52.998;9.116;2023-08-20T14:02:05;30.80;99.90
33328;DHT22;19692;52.998;9.116;2023-08-20T14:04:31;31.10;99.90
33328;DHT22;19692;52.998;9.116;2023-08-20T14:06:57;31.20;99.90
33328;DHT22;19692;52.998;9.116;2023-08-20T14:09:23;31.50;99.90
33328;DHT22;19692;52.998;9.116;2023-08-20T14:11:48;31.40;99.90
33328;DHT22;19692;52.998;9.116;2023-08-20T14:14:14;31.50;99.90
33328;DHT22;19692;52.998;9.116;2023-08-20T14:16:40;31.60;99.90
33328;DHT22;19692;52.998;9.116;2023-08-20T14:19:06;31.30;99.90
33328;DHT22;19692;52.998;9.116;2023-08-20T14:21:32;30.90;99.90
33328;DHT22;19692;52.998;9.116;2023-08-20T14:23:58;30.70;99.90
33328;DHT22;19692;52.998;9.116;2023-08-20T14:26:23;30.90;99.90
33328;DHT22;19692;52.998;9.116;2023-08-20T14:28:49;31.10;99.90
33328;DHT22;19692;52.998;9.116;2023-08-20T14:31:15;31.20;99.90
33328;DHT22;19692;52.998;9.116;2023-08-20T14:33:41;31.10;99.90
33328;DHT22;19692;52.998;9.116;2023-08-20T14:36:07;31.10;99.90
33328;DHT22;19692;52.998;9.116;2023-08-20T14:38:33;30.90;99.90
33328;DHT22;19692;52.998;9.116;2023-08-20T14:41:02;30.90;99.90
33328;DHT22;19692;52.998;9.116;2023-08-20T14:43:29;31.10;99.90
33328;DHT22;19692;52.998;9.116;2023-08-20T14:45:55;31.30;99.90
33328;DHT22;19692;52.998;9.116;2023-08-20T14:48:22;31.50;99.90
33328;DHT22;19692;52.998;9.116;2023-08-20T14:50:48;31.10;99.90
33328;DHT22;19692;52.998;9.116;2023-08-20T14:53:17;30.70;99.90
33328;DHT22;19692;52.998;9.116;2023-08-20T14:55:44;30.30;99.90
33328;DHT22;19692;52.998;9.116;2023-08-20T14:58:10;30.20;99.90
33328;DHT22;19692;52.998;9.116;2023-08-20T15:00:36;29.90;99.90
33328;DHT22;19692;52.998;9.116;2023-08-20T15:03:02;29.90;99.90
33328;DHT22;19692;52.998;9.116;2023-08-20T15:05:29;29.90;99.90
33328;DHT22;19692;52.998;9.116;2023-08-20T15:07:55;30.00;99.90
33328;DHT22;19692;52.998;9.116;2023-08-20T15:10:20;29.90;99.90
33328;DHT22;19692;52.998;9.116;2023-08-20T15:12:46;29.40;99.90
33328;DHT22;19692;52.998;9.116;2023-08-20T15:15:12;29.30;99.90
33328;DHT22;19692;52.998;9.116;2023-08-20T15:17:38;29.40;99.90
33328;DHT22;19692;52.998;9.116;2023-08-20T15:20:05;29.60;99.90
33328;DHT22;19692;52.998;9.116;2023-08-20T15:22:32;30.00;99.90
33328;DHT22;19692;52.998;9.116;2023-08-20T15:24:58;29.90;99.90
33328;DHT22;19692;52.998;9.116;2023-08-20T15:27:24;30.00;99.90
33328;DHT22;19692;52.998;9.116;2023-08-20T15:29:51;30.10;99.90
33328;DHT22;19692;52.998;9.116;2023-08-20T15:32:17;30.10;99.90
33328;DHT22;19692;52.998;9.116;2023-08-20T15:34:43;30.40;99.90
33328;DHT22;19692;52.998;9.116;2023-08-20T15:37:09;30.10;99.90
33328;DHT22;19692;52.998;9.116;2023-08-20T15:39:35;30.00;99.90
33328;DHT22;19692;52.998;9.116;2023-08-20T15:42:01;29.70;99.90
33328;DHT22;19692;52.998;9.116;2023-08-20T15:44:27;29.40;99.90